Newell, Iowa
Current Conditions -  °F | °C
As of 12:55 AM on Monday 22 Dec 2014 (Local Time) from KSLB Reporting Station
Haze Haze  
Wind Chill: 30°   Ceiling: 200
Heat Index: 39°   Visibility: 1.2mi
Dew Point: 39°   Wind: 17mph
Humidity: 100%   Direction: 170°S
Pressure: 29.62"   Gusts: NA
Location:  42.61°N, 95°W
Report Text: KSLB 220655Z AUTO 17015KT 1 1/4SM BR OVC002 04/04 A2962 RMK AO2
Loading
Personal Weather Stations






























Interactive Weather Map New forecast layout! Learn more

10-Day Weather Forecast

Advertisements
Track Severe Weather on mobile